sensor_id;sensor_type;location;lat;lon;timestamp;P1;durP1;ratioP1;P2;durP2;ratioP2
23290;SDS011;11814;44.686;10.842;2023-06-10T00:00:51;28.90;;;23.67;;
23290;SDS011;11814;44.686;10.842;2023-06-10T00:03:17;32.70;;;24.58;;
23290;SDS011;11814;44.686;10.842;2023-06-10T00:05:43;30.83;;;25.58;;
23290;SDS011;11814;44.686;10.842;2023-06-10T00:08:09;31.17;;;25.45;;
23290;SDS011;11814;44.686;10.842;2023-06-10T00:10:38;30.30;;;25.58;;
23290;SDS011;11814;44.686;10.842;2023-06-10T00:13:04;29.73;;;25.45;;
23290;SDS011;11814;44.686;10.842;2023-06-10T00:15:33;30.00;;;24.52;;
23290;SDS011;11814;44.686;10.842;2023-06-10T00:18:00;33.65;;;26.10;;
23290;SDS011;11814;44.686;10.842;2023-06-10T00:20:27;36.88;;;26.75;;
23290;SDS011;11814;44.686;10.842;2023-06-10T00:22:53;36.83;;;27.70;;
23290;SDS011;11814;44.686;10.842;2023-06-10T00:25:18;32.90;;;26.48;;
23290;SDS011;11814;44.686;10.842;2023-06-10T00:27:44;29.73;;;25.75;;
23290;SDS011;11814;44.686;10.842;2023-06-10T00:30:10;36.13;;;26.23;;
23290;SDS011;11814;44.686;10.842;2023-06-10T00:32:36;38.80;;;27.45;;
23290;SDS011;11814;44.686;10.842;2023-06-10T00:35:03;35.20;;;25.35;;
23290;SDS011;11814;44.686;10.842;2023-06-10T00:37:29;35.78;;;27.23;;
23290;SDS011;11814;44.686;10.842;2023-06-10T00:39:55;32.90;;;25.90;;
23290;SDS011;11814;44.686;10.842;2023-06-10T00:42:21;35.35;;;26.77;;
23290;SDS011;11814;44.686;10.842;2023-06-10T00:44:49;32.75;;;25.98;;
23290;SDS011;11814;44.686;10.842;2023-06-10T00:47:16;35.53;;;27.15;;
23290;SDS011;11814;44.686;10.842;2023-06-10T00:49:42;29.83;;;26.50;;
23290;SDS011;11814;44.686;10.842;2023-06-10T00:52:09;28.73;;;25.63;;
23290;SDS011;11814;44.686;10.842;2023-06-10T00:54:36;33.97;;;26.67;;
23290;SDS011;11814;44.686;10.842;2023-06-10T00:57:03;35.78;;;26.75;;
23290;SDS011;11814;44.686;10.842;2023-06-10T00:59:30;32.65;;;25.48;;
23290;SDS011;11814;44.686;10.842;2023-06-10T01:01:57;32.25;;;25.35;;
23290;SDS011;11814;44.686;10.842;2023-06-10T01:04:23;33.42;;;25.08;;
23290;SDS011;11814;44.686;10.842;2023-06-10T01:15:32;59.45;;;28.05;;
23290;SDS011;11814;44.686;10.842;2023-06-10T01:18:00;31.67;;;26.73;;
23290;SDS011;11814;44.686;10.842;2023-06-10T01:20:28;31.00;;;24.83;;
23290;SDS011;11814;44.686;10.842;2023-06-10T01:22:57;34.78;;;26.17;;
23290;SDS011;11814;44.686;10.842;2023-06-10T01:25:24;35.80;;;25.58;;
23290;SDS011;11814;44.686;10.842;2023-06-10T01:33:33;32.90;;;26.83;;
23290;SDS011;11814;44.686;10.842;2023-06-10T01:36:02;31.17;;;25.55;;
23290;SDS011;11814;44.686;10.842;2023-06-10T01:38:33;29.55;;;23.95;;
23290;SDS011;11814;44.686;10.842;2023-06-10T01:41:04;27.75;;;22.55;;
23290;SDS011;11814;44.686;10.842;2023-06-10T01:43:34;34.22;;;26.50;;
23290;SDS011;11814;44.686;10.842;2023-06-10T01:46:02;32.22;;;25.42;;
23290;SDS011;11814;44.686;10.842;2023-06-10T01:48:28;31.40;;;26.55;;
23290;SDS011;11814;44.686;10.842;2023-06-10T01:50:53;33.65;;;27.55;;
23290;SDS011;11814;44.686;10.842;2023-06-10T01:53:21;34.00;;;24.13;;
23290;SDS011;11814;44.686;10.842;2023-06-10T01:55:47;28.27;;;23.45;;
23290;SDS011;11814;44.686;10.842;2023-06-10T01:58:13;30.73;;;23.63;;
23290;SDS011;11814;44.686;10.842;2023-06-10T02:00:39;32.03;;;24.58;;
23290;SDS011;11814;44.686;10.842;2023-06-10T02:03:05;29.83;;;24.23;;
23290;SDS011;11814;44.686;10.842;2023-06-10T02:05:30;28.58;;;23.05;;
23290;SDS011;11814;44.686;10.842;2023-06-10T02:07:57;27.67;;;23.15;;
23290;SDS011;11814;44.686;10.842;2023-06-10T02:10:23;27.35;;;21.67;;
23290;SDS011;11814;44.686;10.842;2023-06-10T02:12:49;27.45;;;21.15;;
23290;SDS011;11814;44.686;10.842;2023-06-10T02:15:15;26.40;;;21.08;;
23290;SDS011;11814;44.686;10.842;2023-06-10T02:17:40;24.45;;;20.58;;
23290;SDS011;11814;44.686;10.842;2023-06-10T02:20:06;26.58;;;20.90;;
23290;SDS011;11814;44.686;10.842;2023-06-10T02:22:36;29.05;;;22.15;;
23290;SDS011;11814;44.686;10.842;2023-06-10T02:25:02;27.02;;;20.50;;
23290;SDS011;11814;44.686;10.842;2023-06-10T02:27:28;29.23;;;21.02;;
23290;SDS011;11814;44.686;10.842;2023-06-10T02:29:55;27.20;;;20.75;;
23290;SDS011;11814;44.686;10.842;2023-06-10T02:32:21;23.35;;;20.05;;
23290;SDS011;11814;44.686;10.842;2023-06-10T02:34:47;24.63;;;20.23;;
23290;SDS011;11814;44.686;10.842;2023-06-10T02:37:16;25.23;;;20.08;;
23290;SDS011;11814;44.686;10.842;2023-06-10T02:39:42;26.90;;;18.67;;
23290;SDS011;11814;44.686;10.842;2023-06-10T02:42:08;22.98;;;19.13;;
23290;SDS011;11814;44.686;10.842;2023-06-10T02:44:33;23.73;;;19.75;;
23290;SDS011;11814;44.686;10.842;2023-06-10T02:46:59;21.90;;;19.05;;
23290;SDS011;11814;44.686;10.842;2023-06-10T02:49:25;28.08;;;20.60;;
23290;SDS011;11814;44.686;10.842;2023-06-10T02:51:54;26.55;;;20.10;;
23290;SDS011;11814;44.686;10.842;2023-06-10T02:54:20;28.52;;;19.33;;
23290;SDS011;11814;44.686;10.842;2023-06-10T02:56:46;25.27;;;20.30;;
23290;SDS011;11814;44.686;10.842;2023-06-10T02:59:13;29.95;;;21.25;;
23290;SDS011;11814;44.686;10.842;2023-06-10T03:01:39;29.10;;;20.67;;
23290;SDS011;11814;44.686;10.842;2023-06-10T03:04:05;28.60;;;22.20;;
23290;SDS011;11814;44.686;10.842;2023-06-10T03:06:32;23.48;;;20.40;;
23290;SDS011;11814;44.686;10.842;2023-06-10T03:08:59;26.35;;;22.38;;
23290;SDS011;11814;44.686;10.842;2023-06-10T03:11:25;30.05;;;23.45;;
23290;SDS011;11814;44.686;10.842;2023-06-10T03:13:51;33.63;;;23.58;;
23290;SDS011;11814;44.686;10.842;2023-06-10T03:16:18;30.52;;;24.10;;
23290;SDS011;11814;44.686;10.842;2023-06-10T03:18:44;39.95;;;25.70;;
23290;SDS011;11814;44.686;10.842;2023-06-10T03:21:10;33.33;;;27.58;;
23290;SDS011;11814;44.686;10.842;2023-06-10T03:23:36;33.92;;;26.92;;
23290;SDS011;11814;44.686;10.842;2023-06-10T03:26:03;41.85;;;29.75;;
23290;SDS011;11814;44.686;10.842;2023-06-10T03:28:30;35.67;;;28.17;;
23290;SDS011;11814;44.686;10.842;2023-06-10T03:30:56;34.30;;;28.10;;
23290;SDS011;11814;44.686;10.842;2023-06-10T03:33:22;38.00;;;29.40;;
23290;SDS011;11814;44.686;10.842;2023-06-10T03:35:48;34.13;;;28.92;;
23290;SDS011;11814;44.686;10.842;2023-06-10T03:38:13;37.65;;;28.38;;
23290;SDS011;11814;44.686;10.842;2023-06-10T03:40:39;38.38;;;29.35;;
23290;SDS011;11814;44.686;10.842;2023-06-10T03:43:05;34.47;;;27.80;;
23290;SDS011;11814;44.686;10.842;2023-06-10T03:45:31;36.13;;;28.73;;
23290;SDS011;11814;44.686;10.842;2023-06-10T03:47:57;37.42;;;28.23;;
23290;SDS011;11814;44.686;10.842;2023-06-10T03:50:23;33.03;;;27.80;;
23290;SDS011;11814;44.686;10.842;2023-06-10T03:52:49;39.00;;;28.70;;
23290;SDS011;11814;44.686;10.842;2023-06-10T03:55:15;40.33;;;29.55;;
23290;SDS011;11814;44.686;10.842;2023-06-10T03:57:42;37.35;;;29.27;;
23290;SDS011;11814;44.686;10.842;2023-06-10T04:00:08;35.58;;;29.90;;
23290;SDS011;11814;44.686;10.842;2023-06-10T04:02:38;39.15;;;29.00;;
23290;SDS011;11814;44.686;10.842;2023-06-10T04:05:17;43.25;;;29.50;;
23290;SDS011;11814;44.686;10.842;2023-06-10T04:07:43;41.47;;;29.90;;
23290;SDS011;11814;44.686;10.842;2023-06-10T04:10:09;40.15;;;29.33;;
23290;SDS011;11814;44.686;10.842;2023-06-10T04:12:36;40.45;;;30.13;;
23290;SDS011;11814;44.686;10.842;2023-06-10T04:15:02;36.03;;;27.17;;
23290;SDS011;11814;44.686;10.842;2023-06-10T04:17:29;41.13;;;27.52;;
23290;SDS011;11814;44.686;10.842;2023-06-10T04:19:55;36.80;;;25.60;;
23290;SDS011;11814;44.686;10.842;2023-06-10T04:22:21;34.33;;;26.05;;
23290;SDS011;11814;44.686;10.842;2023-06-10T04:24:48;36.15;;;25.13;;
23290;SDS011;11814;44.686;10.842;2023-06-10T04:27:13;33.88;;;25.08;;
23290;SDS011;11814;44.686;10.842;2023-06-10T04:29:39;31.63;;;24.35;;
23290;SDS011;11814;44.686;10.842;2023-06-10T04:32:05;34.25;;;25.05;;
23290;SDS011;11814;44.686;10.842;2023-06-10T04:34:35;59.88;;;35.63;;
23290;SDS011;11814;44.686;10.842;2023-06-10T04:37:01;37.50;;;25.65;;
23290;SDS011;11814;44.686;10.842;2023-06-10T04:39:27;30.90;;;25.02;;
23290;SDS011;11814;44.686;10.842;2023-06-10T04:41:53;30.45;;;26.35;;
23290;SDS011;11814;44.686;10.842;2023-06-10T04:44:19;30.75;;;26.42;;
23290;SDS011;11814;44.686;10.842;2023-06-10T04:46:44;34.78;;;24.50;;
23290;SDS011;11814;44.686;10.842;2023-06-10T04:49:10;27.15;;;23.30;;
23290;SDS011;11814;44.686;10.842;2023-06-10T04:51:39;31.63;;;23.08;;
23290;SDS011;11814;44.686;10.842;2023-06-10T04:54:05;33.70;;;23.20;;
23290;SDS011;11814;44.686;10.842;2023-06-10T04:56:31;37.85;;;24.70;;
23290;SDS011;11814;44.686;10.842;2023-06-10T04:58:57;41.20;;;28.45;;
23290;SDS011;11814;44.686;10.842;2023-06-10T05:01:23;35.97;;;24.15;;
23290;SDS011;11814;44.686;10.842;2023-06-10T05:03:49;36.03;;;27.05;;
23290;SDS011;11814;44.686;10.842;2023-06-10T05:06:14;34.50;;;25.95;;
23290;SDS011;11814;44.686;10.842;2023-06-10T05:08:40;37.85;;;26.67;;
23290;SDS011;11814;44.686;10.842;2023-06-10T05:11:06;40.45;;;26.95;;
23290;SDS011;11814;44.686;10.842;2023-06-10T05:13:32;31.45;;;25.48;;
23290;SDS011;11814;44.686;10.842;2023-06-10T05:15:58;32.13;;;24.50;;
23290;SDS011;11814;44.686;10.842;2023-06-10T05:18:24;31.50;;;24.90;;
23290;SDS011;11814;44.686;10.842;2023-06-10T05:20:49;47.90;;;31.90;;
23290;SDS011;11814;44.686;10.842;2023-06-10T05:23:16;39.47;;;27.40;;
23290;SDS011;11814;44.686;10.842;2023-06-10T05:25:42;37.45;;;25.52;;
23290;SDS011;11814;44.686;10.842;2023-06-10T05:28:07;35.58;;;27.70;;
23290;SDS011;11814;44.686;10.842;2023-06-10T05:30:36;49.88;;;33.08;;
23290;SDS011;11814;44.686;10.842;2023-06-10T05:33:03;35.72;;;27.70;;
23290;SDS011;11814;44.686;10.842;2023-06-10T05:35:29;31.27;;;24.73;;
23290;SDS011;11814;44.686;10.842;2023-06-10T05:37:55;32.00;;;26.20;;
23290;SDS011;11814;44.686;10.842;2023-06-10T05:40:20;69.10;;;40.85;;
23290;SDS011;11814;44.686;10.842;2023-06-10T05:42:46;35.08;;;26.23;;
23290;SDS011;11814;44.686;10.842;2023-06-10T05:45:12;29.67;;;25.58;;
23290;SDS011;11814;44.686;10.842;2023-06-10T05:47:38;33.35;;;25.95;;
23290;SDS011;11814;44.686;10.842;2023-06-10T05:50:04;31.60;;;26.65;;
23290;SDS011;11814;44.686;10.842;2023-06-10T05:52:32;65.50;;;38.25;;
23290;SDS011;11814;44.686;10.842;2023-06-10T05:54:59;68.97;;;41.22;;
23290;SDS011;11814;44.686;10.842;2023-06-10T05:57:25;40.25;;;30.27;;
23290;SDS011;11814;44.686;10.842;2023-06-10T05:59:51;46.55;;;32.00;;
23290;SDS011;11814;44.686;10.842;2023-06-10T06:02:17;35.95;;;27.40;;
23290;SDS011;11814;44.686;10.842;2023-06-10T06:04:43;38.88;;;29.17;;
23290;SDS011;11814;44.686;10.842;2023-06-10T06:07:08;36.38;;;29.70;;
23290;SDS011;11814;44.686;10.842;2023-06-10T06:09:34;52.28;;;34.63;;
23290;SDS011;11814;44.686;10.842;2023-06-10T06:12:00;36.20;;;28.15;;
23290;SDS011;11814;44.686;10.842;2023-06-10T06:14:26;43.92;;;29.65;;
23290;SDS011;11814;44.686;10.842;2023-06-10T06:16:56;35.25;;;27.33;;
23290;SDS011;11814;44.686;10.842;2023-06-10T06:19:22;29.05;;;24.83;;
23290;SDS011;11814;44.686;10.842;2023-06-10T06:21:47;30.90;;;24.98;;
23290;SDS011;11814;44.686;10.842;2023-06-10T06:24:14;33.30;;;24.25;;
23290;SDS011;11814;44.686;10.842;2023-06-10T06:26:40;31.23;;;24.50;;
23290;SDS011;11814;44.686;10.842;2023-06-10T06:29:06;31.45;;;23.55;;
23290;SDS011;11814;44.686;10.842;2023-06-10T06:31:32;27.58;;;22.58;;
23290;SDS011;11814;44.686;10.842;2023-06-10T06:33:58;30.10;;;24.88;;
23290;SDS011;11814;44.686;10.842;2023-06-10T06:36:23;34.78;;;27.42;;
23290;SDS011;11814;44.686;10.842;2023-06-10T06:38:49;31.00;;;25.23;;
23290;SDS011;11814;44.686;10.842;2023-06-10T06:41:15;29.38;;;24.08;;
23290;SDS011;11814;44.686;10.842;2023-06-10T06:43:41;35.83;;;26.67;;
23290;SDS011;11814;44.686;10.842;2023-06-10T06:46:08;31.35;;;25.30;;
23290;SDS011;11814;44.686;10.842;2023-06-10T06:48:33;32.17;;;25.23;;
23290;SDS011;11814;44.686;10.842;2023-06-10T06:50:59;30.13;;;24.70;;
23290;SDS011;11814;44.686;10.842;2023-06-10T06:53:25;33.58;;;24.77;;
23290;SDS011;11814;44.686;10.842;2023-06-10T06:55:51;30.58;;;25.33;;
23290;SDS011;11814;44.686;10.842;2023-06-10T06:58:17;33.03;;;25.80;;
23290;SDS011;11814;44.686;10.842;2023-06-10T07:00:42;41.03;;;28.48;;
23290;SDS011;11814;44.686;10.842;2023-06-10T07:03:08;43.75;;;32.55;;
23290;SDS011;11814;44.686;10.842;2023-06-10T07:05:34;36.80;;;29.90;;
23290;SDS011;11814;44.686;10.842;2023-06-10T07:07:59;28.50;;;21.15;;
23290;SDS011;11814;44.686;10.842;2023-06-10T07:10:25;24.05;;;19.92;;
23290;SDS011;11814;44.686;10.842;2023-06-10T07:12:51;20.98;;;16.85;;
23290;SDS011;11814;44.686;10.842;2023-06-10T07:15:18;24.02;;;17.20;;
23290;SDS011;11814;44.686;10.842;2023-06-10T07:17:44;20.02;;;15.88;;
23290;SDS011;11814;44.686;10.842;2023-06-10T07:20:10;19.45;;;12.40;;
23290;SDS011;11814;44.686;10.842;2023-06-10T07:22:36;13.70;;;10.70;;
23290;SDS011;11814;44.686;10.842;2023-06-10T07:25:04;14.20;;;9.30;;
23290;SDS011;11814;44.686;10.842;2023-06-10T07:27:30;7.60;;;6.55;;
23290;SDS011;11814;44.686;10.842;2023-06-10T07:29:56;7.30;;;6.40;;
23290;SDS011;11814;44.686;10.842;2023-06-10T07:32:22;6.57;;;4.82;;
23290;SDS011;11814;44.686;10.842;2023-06-10T07:34:49;8.38;;;4.53;;
23290;SDS011;11814;44.686;10.842;2023-06-10T07:37:15;6.72;;;4.25;;
23290;SDS011;11814;44.686;10.842;2023-06-10T07:39:41;7.80;;;4.75;;
23290;SDS011;11814;44.686;10.842;2023-06-10T07:42:08;9.25;;;4.70;;
23290;SDS011;11814;44.686;10.842;2023-06-10T07:44:34;5.45;;;4.40;;
23290;SDS011;11814;44.686;10.842;2023-06-10T07:46:59;9.90;;;5.93;;
23290;SDS011;11814;44.686;10.842;2023-06-10T07:49:25;11.00;;;7.65;;
23290;SDS011;11814;44.686;10.842;2023-06-10T07:51:53;10.57;;;7.72;;
23290;SDS011;11814;44.686;10.842;2023-06-10T07:54:20;12.02;;;9.60;;
23290;SDS011;11814;44.686;10.842;2023-06-10T07:56:46;12.00;;;9.82;;
23290;SDS011;11814;44.686;10.842;2023-06-10T07:59:13;15.38;;;10.70;;
23290;SDS011;11814;44.686;10.842;2023-06-10T08:01:39;14.35;;;11.05;;
23290;SDS011;11814;44.686;10.842;2023-06-10T08:04:05;16.90;;;13.20;;
23290;SDS011;11814;44.686;10.842;2023-06-10T08:06:31;17.40;;;11.88;;
23290;SDS011;11814;44.686;10.842;2023-06-10T08:08:57;18.35;;;12.93;;
23290;SDS011;11814;44.686;10.842;2023-06-10T08:11:23;18.98;;;13.18;;
23290;SDS011;11814;44.686;10.842;2023-06-10T08:13:48;15.90;;;13.27;;
23290;SDS011;11814;44.686;10.842;2023-06-10T08:16:14;16.83;;;12.85;;
23290;SDS011;11814;44.686;10.842;2023-06-10T08:18:40;17.20;;;14.00;;
23290;SDS011;11814;44.686;10.842;2023-06-10T08:21:06;18.00;;;13.68;;
23290;SDS011;11814;44.686;10.842;2023-06-10T08:23:31;19.50;;;12.82;;
23290;SDS011;11814;44.686;10.842;2023-06-10T08:25:57;18.00;;;13.60;;
23290;SDS011;11814;44.686;10.842;2023-06-10T08:28:23;16.70;;;14.23;;
23290;SDS011;11814;44.686;10.842;2023-06-10T08:30:49;16.02;;;12.73;;
23290;SDS011;11814;44.686;10.842;2023-06-10T08:33:14;17.90;;;12.98;;
23290;SDS011;11814;44.686;10.842;2023-06-10T08:35:40;19.77;;;13.07;;
23290;SDS011;11814;44.686;10.842;2023-06-10T08:38:06;17.25;;;13.05;;
23290;SDS011;11814;44.686;10.842;2023-06-10T08:40:32;17.70;;;11.30;;
23290;SDS011;11814;44.686;10.842;2023-06-10T08:45:28;14.35;;;10.60;;
23290;SDS011;11814;44.686;10.842;2023-06-10T08:48:00;15.85;;;11.07;;
23290;SDS011;11814;44.686;10.842;2023-06-10T08:50:35;14.48;;;10.55;;
23290;SDS011;11814;44.686;10.842;2023-06-10T08:53:02;14.23;;;9.75;;
23290;SDS011;11814;44.686;10.842;2023-06-10T08:55:32;16.15;;;10.18;;
23290;SDS011;11814;44.686;10.842;2023-06-10T08:58:00;12.43;;;9.38;;
23290;SDS011;11814;44.686;10.842;2023-06-10T09:00:27;13.05;;;9.82;;
23290;SDS011;11814;44.686;10.842;2023-06-10T09:02:55;12.68;;;9.75;;
23290;SDS011;11814;44.686;10.842;2023-06-10T09:05:22;17.58;;;11.38;;
23290;SDS011;11814;44.686;10.842;2023-06-10T09:07:48;13.05;;;9.45;;
23290;SDS011;11814;44.686;10.842;2023-06-10T09:10:16;11.75;;;10.05;;
23290;SDS011;11814;44.686;10.842;2023-06-10T09:12:42;14.38;;;9.00;;
23290;SDS011;11814;44.686;10.842;2023-06-10T09:15:08;11.25;;;8.88;;
23290;SDS011;11814;44.686;10.842;2023-06-10T09:17:34;9.73;;;6.55;;
23290;SDS011;11814;44.686;10.842;2023-06-10T09:20:06;9.98;;;7.13;;
23290;SDS011;11814;44.686;10.842;2023-06-10T09:22:33;9.32;;;8.00;;
23290;SDS011;11814;44.686;10.842;2023-06-10T09:25:08;11.57;;;8.15;;
23290;SDS011;11814;44.686;10.842;2023-06-10T09:27:48;9.40;;;7.88;;
23290;SDS011;11814;44.686;10.842;2023-06-10T09:30:25;12.68;;;7.30;;
23290;SDS011;11814;44.686;10.842;2023-06-10T09:32:55;11.15;;;6.93;;
23290;SDS011;11814;44.686;10.842;2023-06-10T09:35:23;10.57;;;7.10;;
23290;SDS011;11814;44.686;10.842;2023-06-10T09:37:58;10.35;;;7.40;;
23290;SDS011;11814;44.686;10.842;2023-06-10T09:40:24;10.93;;;7.70;;
23290;SDS011;11814;44.686;10.842;2023-06-10T09:42:54;11.45;;;7.72;;
23290;SDS011;11814;44.686;10.842;2023-06-10T09:45:25;10.55;;;8.20;;
23290;SDS011;11814;44.686;10.842;2023-06-10T09:47:55;10.88;;;7.13;;
23290;SDS011;11814;44.686;10.842;2023-06-10T09:50:21;9.23;;;7.25;;
23290;SDS011;11814;44.686;10.842;2023-06-10T09:52:46;9.70;;;7.10;;
23290;SDS011;11814;44.686;10.842;2023-06-10T09:55:16;13.52;;;8.10;;
23290;SDS011;11814;44.686;10.842;2023-06-10T09:57:42;12.50;;;7.72;;
23290;SDS011;11814;44.686;10.842;2023-06-10T10:00:12;10.18;;;6.13;;
23290;SDS011;11814;44.686;10.842;2023-06-10T10:02:46;7.55;;;4.65;;
23290;SDS011;11814;44.686;10.842;2023-06-10T10:05:14;4.95;;;3.70;;
23290;SDS011;11814;44.686;10.842;2023-06-10T10:07:41;5.68;;;3.60;;
23290;SDS011;11814;44.686;10.842;2023-06-10T10:10:07;8.00;;;3.45;;
23290;SDS011;11814;44.686;10.842;2023-06-10T10:12:35;6.18;;;2.90;;
23290;SDS011;11814;44.686;10.842;2023-06-10T10:15:02;8.52;;;3.47;;
23290;SDS011;11814;44.686;10.842;2023-06-10T10:17:30;6.72;;;2.85;;
23290;SDS011;11814;44.686;10.842;2023-06-10T10:20:01;4.82;;;2.75;;
23290;SDS011;11814;44.686;10.842;2023-06-10T10:22:35;5.60;;;2.78;;
23290;SDS011;11814;44.686;10.842;2023-06-10T10:25:05;5.78;;;3.30;;
23290;SDS011;11814;44.686;10.842;2023-06-10T10:30:09;9.48;;;3.55;;
23290;SDS011;11814;44.686;10.842;2023-06-10T10:32:40;6.88;;;3.20;;
23290;SDS011;11814;44.686;10.842;2023-06-10T10:35:17;8.77;;;3.28;;
23290;SDS011;11814;44.686;10.842;2023-06-10T10:37:51;8.07;;;3.00;;
23290;SDS011;11814;44.686;10.842;2023-06-10T10:40:18;9.68;;;2.97;;
23290;SDS011;11814;44.686;10.842;2023-06-10T10:42:45;5.75;;;2.75;;
23290;SDS011;11814;44.686;10.842;2023-06-10T10:45:16;7.85;;;3.35;;
23290;SDS011;11814;44.686;10.842;2023-06-10T10:47:43;8.73;;;3.45;;
23290;SDS011;11814;44.686;10.842;2023-06-10T10:50:14;7.50;;;3.70;;
23290;SDS011;11814;44.686;10.842;2023-06-10T10:53:02;9.45;;;3.28;;
23290;SDS011;11814;44.686;10.842;2023-06-10T10:55:27;7.88;;;3.38;;
23290;SDS011;11814;44.686;10.842;2023-06-10T11:00:25;7.57;;;3.70;;
23290;SDS011;11814;44.686;10.842;2023-06-10T11:02:52;6.97;;;3.95;;
23290;SDS011;11814;44.686;10.842;2023-06-10T11:05:19;10.38;;;4.43;;
23290;SDS011;11814;44.686;10.842;2023-06-10T11:08:07;6.70;;;4.22;;
23290;SDS011;11814;44.686;10.842;2023-06-10T11:10:35;7.25;;;4.60;;
23290;SDS011;11814;44.686;10.842;2023-06-10T11:13:08;7.00;;;4.72;;
23290;SDS011;11814;44.686;10.842;2023-06-10T11:15:38;9.70;;;4.93;;
23290;SDS011;11814;44.686;10.842;2023-06-10T11:18:13;9.70;;;5.70;;
23290;SDS011;11814;44.686;10.842;2023-06-10T11:31:26;7.55;;;4.30;;
23290;SDS011;11814;44.686;10.842;2023-06-10T11:33:57;6.88;;;4.43;;
23290;SDS011;11814;44.686;10.842;2023-06-10T11:36:31;7.25;;;4.22;;
23290;SDS011;11814;44.686;10.842;2023-06-10T11:38:59;7.93;;;5.05;;
23290;SDS011;11814;44.686;10.842;2023-06-10T11:41:27;7.18;;;4.63;;
23290;SDS011;11814;44.686;10.842;2023-06-10T11:43:57;9.65;;;5.20;;
23290;SDS011;11814;44.686;10.842;2023-06-10T11:46:29;9.55;;;5.60;;
23290;SDS011;11814;44.686;10.842;2023-06-10T11:48:55;7.32;;;5.22;;
23290;SDS011;11814;44.686;10.842;2023-06-10T11:51:27;13.30;;;6.00;;
23290;SDS011;11814;44.686;10.842;2023-06-10T11:54:04;9.18;;;6.15;;
23290;SDS011;11814;44.686;10.842;2023-06-10T11:56:30;8.23;;;5.57;;
23290;SDS011;11814;44.686;10.842;2023-06-10T12:01:26;10.45;;;7.00;;
23290;SDS011;11814;44.686;10.842;2023-06-10T12:09:23;11.73;;;7.22;;
23290;SDS011;11814;44.686;10.842;2023-06-10T12:17:21;8.52;;;5.90;;
23290;SDS011;11814;44.686;10.842;2023-06-10T12:19:49;9.75;;;5.90;;
23290;SDS011;11814;44.686;10.842;2023-06-10T12:22:15;9.23;;;5.47;;
23290;SDS011;11814;44.686;10.842;2023-06-10T12:24:45;10.38;;;5.90;;
23290;SDS011;11814;44.686;10.842;2023-06-10T12:27:27;9.40;;;4.60;;
23290;SDS011;11814;44.686;10.842;2023-06-10T12:30:00;8.57;;;4.38;;
23290;SDS011;11814;44.686;10.842;2023-06-10T12:32:38;8.68;;;4.22;;
23290;SDS011;11814;44.686;10.842;2023-06-10T12:35:06;10.43;;;4.88;;
23290;SDS011;11814;44.686;10.842;2023-06-10T12:37:32;6.65;;;4.65;;
23290;SDS011;11814;44.686;10.842;2023-06-10T12:40:00;5.47;;;4.22;;
23290;SDS011;11814;44.686;10.842;2023-06-10T12:42:34;6.78;;;4.07;;
23290;SDS011;11814;44.686;10.842;2023-06-10T12:45:01;6.25;;;4.22;;
23290;SDS011;11814;44.686;10.842;2023-06-10T12:47:31;8.50;;;3.67;;
23290;SDS011;11814;44.686;10.842;2023-06-10T12:50:00;6.07;;;3.40;;
23290;SDS011;11814;44.686;10.842;2023-06-10T12:52:28;5.53;;;3.70;;
23290;SDS011;11814;44.686;10.842;2023-06-10T12:54:54;5.03;;;3.50;;
23290;SDS011;11814;44.686;10.842;2023-06-10T12:57:21;5.85;;;3.92;;
23290;SDS011;11814;44.686;10.842;2023-06-10T12:59:47;6.45;;;4.10;;
23290;SDS011;11814;44.686;10.842;2023-06-10T13:02:20;7.50;;;3.83;;
23290;SDS011;11814;44.686;10.842;2023-06-10T13:04:49;7.80;;;4.35;;
23290;SDS011;11814;44.686;10.842;2023-06-10T13:07:15;5.22;;;3.28;;
23290;SDS011;11814;44.686;10.842;2023-06-10T13:09:42;6.10;;;3.75;;
23290;SDS011;11814;44.686;10.842;2023-06-10T13:12:08;10.20;;;5.55;;
23290;SDS011;11814;44.686;10.842;2023-06-10T13:14:35;7.88;;;6.10;;
23290;SDS011;11814;44.686;10.842;2023-06-10T13:17:03;7.63;;;5.32;;
23290;SDS011;11814;44.686;10.842;2023-06-10T13:19:31;8.32;;;4.90;;
23290;SDS011;11814;44.686;10.842;2023-06-10T13:21:58;8.02;;;4.18;;
23290;SDS011;11814;44.686;10.842;2023-06-10T13:24:24;10.05;;;4.38;;
23290;SDS011;11814;44.686;10.842;2023-06-10T13:26:50;7.43;;;5.57;;
23290;SDS011;11814;44.686;10.842;2023-06-10T13:29:15;7.03;;;5.10;;
23290;SDS011;11814;44.686;10.842;2023-06-10T13:31:41;7.38;;;4.45;;
23290;SDS011;11814;44.686;10.842;2023-06-10T13:34:07;7.32;;;4.60;;
23290;SDS011;11814;44.686;10.842;2023-06-10T13:36:33;6.53;;;4.07;;
23290;SDS011;11814;44.686;10.842;2023-06-10T13:38:59;8.23;;;3.95;;
23290;SDS011;11814;44.686;10.842;2023-06-10T13:41:25;7.28;;;4.13;;
23290;SDS011;11814;44.686;10.842;2023-06-10T13:43:53;6.28;;;4.50;;
23290;SDS011;11814;44.686;10.842;2023-06-10T13:46:20;6.68;;;3.42;;
23290;SDS011;11814;44.686;10.842;2023-06-10T13:48:51;7.32;;;3.50;;
23290;SDS011;11814;44.686;10.842;2023-06-10T13:51:17;8.77;;;6.00;;
23290;SDS011;11814;44.686;10.842;2023-06-10T13:53:43;11.77;;;5.82;;
23290;SDS011;11814;44.686;10.842;2023-06-10T13:56:10;10.35;;;5.70;;
23290;SDS011;11814;44.686;10.842;2023-06-10T13:58:36;9.82;;;6.32;;
23290;SDS011;11814;44.686;10.842;2023-06-10T14:01:05;10.23;;;6.85;;
23290;SDS011;11814;44.686;10.842;2023-06-10T14:03:31;9.38;;;6.85;;
23290;SDS011;11814;44.686;10.842;2023-06-10T14:05:57;10.13;;;6.07;;
23290;SDS011;11814;44.686;10.842;2023-06-10T14:08:23;10.38;;;7.28;;
23290;SDS011;11814;44.686;10.842;2023-06-10T14:10:49;10.43;;;8.13;;
23290;SDS011;11814;44.686;10.842;2023-06-10T14:13:16;12.95;;;9.15;;
23290;SDS011;11814;44.686;10.842;2023-06-10T14:15:42;12.05;;;9.57;;
23290;SDS011;11814;44.686;10.842;2023-06-10T14:18:09;14.52;;;9.63;;
23290;SDS011;11814;44.686;10.842;2023-06-10T14:20:35;16.23;;;11.90;;
23290;SDS011;11814;44.686;10.842;2023-06-10T14:23:01;15.60;;;12.00;;
23290;SDS011;11814;44.686;10.842;2023-06-10T14:25:27;14.32;;;9.57;;
23290;SDS011;11814;44.686;10.842;2023-06-10T14:27:53;18.98;;;12.48;;
23290;SDS011;11814;44.686;10.842;2023-06-10T14:30:19;23.02;;;14.52;;
23290;SDS011;11814;44.686;10.842;2023-06-10T14:32:44;11.70;;;8.52;;
23290;SDS011;11814;44.686;10.842;2023-06-10T14:35:10;15.95;;;7.78;;
23290;SDS011;11814;44.686;10.842;2023-06-10T14:37:36;15.70;;;9.02;;
23290;SDS011;11814;44.686;10.842;2023-06-10T14:40:03;16.83;;;12.32;;
23290;SDS011;11814;44.686;10.842;2023-06-10T14:42:30;16.08;;;12.48;;
23290;SDS011;11814;44.686;10.842;2023-06-10T14:44:57;18.60;;;13.63;;
23290;SDS011;11814;44.686;10.842;2023-06-10T14:47:23;16.45;;;10.80;;
23290;SDS011;11814;44.686;10.842;2023-06-10T14:49:49;13.05;;;8.70;;
23290;SDS011;11814;44.686;10.842;2023-06-10T14:52:15;14.13;;;9.25;;
23290;SDS011;11814;44.686;10.842;2023-06-10T14:54:41;16.95;;;11.40;;
23290;SDS011;11814;44.686;10.842;2023-06-10T14:57:07;18.50;;;12.35;;
23290;SDS011;11814;44.686;10.842;2023-06-10T14:59:33;19.00;;;14.57;;
23290;SDS011;11814;44.686;10.842;2023-06-10T15:01:59;23.63;;;17.48;;